Time;durP1;ratioP1;P1;durP2;ratioP2;P2;SDS_P1;SDS_P2;PMS_P1;PMS_P2;Temp;Humidity;BMP_temperature;BMP_pressure;BME280_temperature;BME280_humidity;BME280_pressure;Samples;Min_cycle;Max_cycle;Signal;HPM_P1;HPM_P2
2022/01/31 00:00:09;;;;;;;0.00;0.00;;;3.40;99.90;;;;;;5073636;28;20182;-77
2022/01/31 00:02:35;;;;;;;5.13;0.97;;;3.30;99.90;;;;;;5073803;28;20642;-77
2022/01/31 00:05:01;;;;;;;0.30;0.30;;;3.30;99.90;;;;;;5073923;28;20228;-77
2022/01/31 00:07:27;;;;;;;0.97;0.60;;;3.30;99.90;;;;;;5073620;28;20179;-75
2022/01/31 00:09:52;;;;;;;0.23;0.23;;;3.20;99.90;;;;;;5073820;28;20188;-76
2022/01/31 00:12:19;;;;;;;0.10;0.10;;;3.10;99.90;;;;;;5073691;28;20207;-77
2022/01/31 00:14:49;;;;;;;0.10;0.10;;;3.10;99.90;;;;;;5073753;28;20232;-75
2022/01/31 00:17:15;;;;;;;0.20;0.20;;;3.20;99.90;;;;;;5073622;28;20220;-77
2022/01/31 00:19:42;;;;;;;1.50;0.93;;;3.20;99.90;;;;;;5055494;28;20624;-78
2022/01/31 00:22:11;;;;;;;0.00;0.00;;;3.20;99.90;;;;;;5073286;28;20270;-78
2022/01/31 00:24:37;;;;;;;1.27;0.63;;;3.40;99.90;;;;;;5055477;28;20532;-77
2022/01/31 00:27:05;;;;;;;4.13;2.20;;;3.40;99.90;;;;;;5073490;28;20179;-79
2022/01/31 00:29:30;;;;;;;2.17;1.43;;;3.40;99.90;;;;;;5073244;28;20202;-78
2022/01/31 00:31:56;;;;;;;0.73;0.73;;;3.50;99.90;;;;;;5072981;28;20542;-77
2022/01/31 00:34:22;;;;;;;0.10;0.10;;;3.50;99.90;;;;;;5072007;28;20196;-79
2022/01/31 00:36:48;;;;;;;0.57;0.57;;;3.60;99.90;;;;;;5073282;28;20184;-79
2022/01/31 00:39:13;;;;;;;1.37;1.37;;;3.70;99.90;;;;;;5073259;28;20477;-78
2022/01/31 00:41:40;;;;;;;0.10;0.10;;;3.70;99.90;;;;;;5054572;28;20214;-77
2022/01/31 00:44:26;;;;;;;0.10;0.10;;;3.80;99.90;;;;;;5074496;28;20175;-79
2022/01/31 00:47:02;;;;;;;0.10;0.10;;;3.80;99.90;;;;;;5074166;28;20301;-77
2022/01/31 00:51:57;;;;;;;0.40;0.40;;;3.90;99.90;;;;;;5072893;28;20179;-78
2022/01/31 00:54:22;;;;;;;0.50;0.50;;;4.00;99.90;;;;;;5055200;28;20634;-78
2022/01/31 00:56:49;;;;;;;21.67;1.53;;;4.10;99.90;;;;;;5073110;28;20777;-77
2022/01/31 00:59:14;;;;;;;0.10;0.10;;;4.10;99.90;;;;;;5073373;28;20202;-78
2022/01/31 01:01:40;;;;;;;0.40;0.40;;;4.10;99.90;;;;;;5072900;28;20536;-78
2022/01/31 01:04:06;;;;;;;0.10;0.10;;;4.10;99.90;;;;;;5055668;28;20203;-77
2022/01/31 01:06:31;;;;;;;0.30;0.30;;;4.00;99.90;;;;;;5054410;28;20180;-77
2022/01/31 01:08:57;;;;;;;0.87;0.83;;;4.00;99.90;;;;;;5072681;28;20206;-77
2022/01/31 01:11:23;;;;;;;1.17;1.17;;;4.10;99.90;;;;;;5072362;28;20204;-77
2022/01/31 01:13:48;;;;;;;1.73;0.40;;;4.10;99.90;;;;;;5072415;28;20540;-76
2022/01/31 01:16:14;;;;;;;1.43;1.33;;;4.10;99.90;;;;;;5072183;28;20176;-76
2022/01/31 01:18:40;;;;;;;0.23;0.23;;;4.10;99.90;;;;;;5072451;28;20214;-76
2022/01/31 01:21:05;;;;;;;0.20;0.20;;;4.20;99.90;;;;;;5054560;28;20409;-77
2022/01/31 01:23:31;;;;;;;0.03;0.03;;;4.30;99.90;;;;;;5072454;28;20214;-78
2022/01/31 01:25:56;;;;;;;0.13;0.13;;;4.30;99.90;;;;;;5054276;28;20180;-79
2022/01/31 01:28:24;;;;;;;0.50;0.50;;;4.40;99.90;;;;;;5053452;28;20265;-77
2022/01/31 01:30:49;;;;;;;2.03;1.60;;;4.60;99.90;;;;;;5072276;28;20245;-77
2022/01/31 01:33:22;;;;;;;0.30;0.30;;;4.60;99.90;;;;;;5071867;28;20673;-78
2022/01/31 01:35:50;;;;;;;0.10;0.10;;;4.70;99.90;;;;;;5054465;28;20215;-76
2022/01/31 01:38:17;;;;;;;1.30;1.30;;;4.80;99.90;;;;;;5072439;28;20200;-76
2022/01/31 01:40:44;;;;;;;0.40;0.40;;;4.80;99.90;;;;;;5072156;28;20521;-76
2022/01/31 01:43:11;;;;;;;0.83;0.73;;;4.90;99.90;;;;;;5071917;28;20171;-76
2022/01/31 01:45:37;;;;;;;1.47;0.87;;;5.00;99.90;;;;;;5071723;28;20183;-76
2022/01/31 01:48:06;;;;;;;0.00;0.00;;;5.00;99.90;;;;;;5071936;28;20215;-76
2022/01/31 01:50:33;;;;;;;0.70;0.70;;;5.00;99.90;;;;;;5072067;28;20169;-77
2022/01/31 01:53:00;;;;;;;0.07;0.07;;;5.10;99.90;;;;;;5071578;28;20540;-77
2022/01/31 01:55:26;;;;;;;0.10;0.10;;;5.10;99.90;;;;;;5071828;28;20259;-76
2022/01/31 01:57:51;;;;;;;0.10;0.10;;;5.10;99.90;;;;;;5053825;28;20288;-77
2022/01/31 02:00:24;;;;;;;2.87;0.73;;;5.20;99.90;;;;;;5071516;28;20247;-76
2022/01/31 02:02:50;;;;;;;0.57;0.57;;;5.20;99.90;;;;;;5071510;28;20176;-77
2022/01/31 02:05:16;;;;;;;0.10;0.10;;;5.30;99.90;;;;;;5053877;28;20283;-77
2022/01/31 02:07:42;;;;;;;0.20;0.20;;;5.30;99.90;;;;;;5071805;28;20887;-77
2022/01/31 02:10:09;;;;;;;0.10;0.10;;;5.30;99.90;;;;;;5053751;28;20180;-77
2022/01/31 02:12:52;;;;;;;1.80;1.70;;;5.30;99.90;;;;;;5071186;28;20241;-76
2022/01/31 02:15:23;;;;;;;1.03;0.70;;;5.30;99.90;;;;;;5071667;28;20683;-77
2022/01/31 02:17:48;;;;;;;1.25;1.15;;;5.40;99.90;;;;;;5072312;28;20763;-73
2022/01/31 02:20:14;;;;;;;0.10;0.10;;;5.40;99.90;;;;;;5072186;28;20180;-77
2022/01/31 02:22:39;;;;;;;0.10;0.10;;;5.40;99.90;;;;;;5072107;28;20238;-77
2022/01/31 02:25:05;;;;;;;0.10;0.10;;;5.40;99.90;;;;;;5071611;28;20180;-79
2022/01/31 02:27:34;;;;;;;0.00;0.00;;;5.40;99.90;;;;;;5054015;28;20267;-77
2022/01/31 02:29:59;;;;;;;0.10;0.10;;;5.40;99.90;;;;;;5071764;28;20192;-77
2022/01/31 02:32:25;;;;;;;0.07;0.07;;;5.40;99.90;;;;;;5053276;28;20325;-77
2022/01/31 02:34:51;;;;;;;0.43;0.43;;;5.50;99.90;;;;;;5071597;28;20271;-78
2022/01/31 02:37:18;;;;;;;0.10;0.10;;;5.40;99.90;;;;;;5053503;28;20177;-78
2022/01/31 02:39:45;;;;;;;1.30;1.30;;;5.40;99.90;;;;;;5053382;28;20200;-77
2022/01/31 02:42:11;;;;;;;2.23;1.60;;;5.30;99.90;;;;;;5071271;28;20204;-77
2022/01/31 02:44:40;;;;;;;0.00;0.00;;;5.20;99.90;;;;;;5071749;28;20516;-78
2022/01/31 02:47:11;;;;;;;3.00;0.50;;;5.00;99.90;;;;;;5071885;28;20185;-79
2022/01/31 02:49:46;;;;;;;0.10;0.10;;;4.80;99.90;;;;;;5072092;28;20204;-77
2022/01/31 02:52:14;;;;;;;1.20;0.87;;;4.70;99.90;;;;;;5072065;28;20183;-78
2022/01/31 02:54:39;;;;;;;0.10;0.10;;;4.60;99.90;;;;;;5072536;28;20176;-78
2022/01/31 02:57:05;;;;;;;0.00;0.00;;;4.50;99.90;;;;;;5072435;28;20173;-80
2022/01/31 02:59:31;;;;;;;3.70;2.20;;;4.40;99.90;;;;;;5076648;28;20231;-77
2022/01/31 03:01:57;;;;;;;0.63;0.63;;;4.30;99.90;;;;;;5076691;28;20218;-78
2022/01/31 03:04:23;;;;;;;8.73;2.10;;;4.30;99.90;;;;;;5077286;28;20222;-80
2022/01/31 03:06:49;;;;;;;0.13;0.13;;;4.20;99.90;;;;;;5076963;28;20655;-77
2022/01/31 03:09:15;;;;;;;3.53;1.90;;;4.10;99.90;;;;;;5075187;28;20235;-77
2022/01/31 03:11:41;;;;;;;0.40;0.40;;;4.20;99.90;;;;;;5056785;28;20184;-77
2022/01/31 03:14:07;;;;;;;1.70;1.60;;;4.10;99.90;;;;;;5056929;28;20211;-76
2022/01/31 03:16:34;;;;;;;0.20;0.20;;;4.00;99.90;;;;;;5075004;28;20184;-77
2022/01/31 03:19:00;;;;;;;0.20;0.20;;;4.00;99.90;;;;;;5075001;28;20624;-77
2022/01/31 03:21:26;;;;;;;4.10;1.33;;;3.90;99.90;;;;;;5074523;28;20255;-77
2022/01/31 03:23:51;;;;;;;12.93;1.17;;;3.90;99.90;;;;;;5078118;28;20218;-77
2022/01/31 03:26:17;;;;;;;0.20;0.20;;;3.90;99.90;;;;;;5075099;28;20210;-77
2022/01/31 03:28:43;;;;;;;0.00;0.00;;;3.80;99.90;;;;;;5075893;28;20196;-78
2022/01/31 03:31:09;;;;;;;0.20;0.20;;;3.80;99.90;;;;;;5057994;28;20180;-78
2022/01/31 03:33:36;;;;;;;0.00;0.00;;;3.70;99.90;;;;;;5076173;28;20203;-77
2022/01/31 03:36:02;;;;;;;0.10;0.10;;;3.70;99.90;;;;;;5078076;28;20187;-77
2022/01/31 03:38:27;;;;;;;0.00;0.00;;;3.70;99.90;;;;;;5059846;28;20199;-77
2022/01/31 03:40:53;;;;;;;0.67;0.67;;;3.70;99.90;;;;;;5076320;28;20211;-78
2022/01/31 03:43:19;;;;;;;0.60;0.60;;;3.70;99.90;;;;;;5057353;28;20680;-77
2022/01/31 03:45:44;;;;;;;0.10;0.10;;;3.70;99.90;;;;;;5075639;28;20185;-77
2022/01/31 03:48:10;;;;;;;0.00;0.00;;;3.60;99.90;;;;;;5059166;28;20219;-79
2022/01/31 03:50:35;;;;;;;0.00;0.00;;;3.70;99.90;;;;;;5057576;28;20793;-77
2022/01/31 03:53:01;;;;;;;0.00;0.00;;;3.70;99.90;;;;;;5075358;28;20200;-77
2022/01/31 03:55:27;;;;;;;0.10;0.10;;;3.70;99.90;;;;;;5075907;28;20173;-78
2022/01/31 03:57:54;;;;;;;0.00;0.00;;;3.70;99.90;;;;;;5057642;28;20209;-77
2022/01/31 04:00:19;;;;;;;0.00;0.00;;;3.80;99.90;;;;;;5076310;28;20245;-77
2022/01/31 04:02:45;;;;;;;0.00;0.00;;;3.80;99.90;;;;;;5075593;28;20651;-78
2022/01/31 04:05:10;;;;;;;0.10;0.10;;;3.80;99.90;;;;;;5075788;28;20172;-77
2022/01/31 04:07:36;;;;;;;1.20;1.20;;;3.90;99.90;;;;;;5075431;28;20635;-78
2022/01/31 04:10:04;;;;;;;0.00;0.00;;;3.80;99.90;;;;;;5075978;28;20179;-78
2022/01/31 04:12:29;;;;;;;0.00;0.00;;;3.90;99.90;;;;;;5057716;28;20251;-78
2022/01/31 04:14:55;;;;;;;0.13;0.13;;;3.90;99.90;;;;;;5076581;28;20224;-77
2022/01/31 04:17:21;;;;;;;0.00;0.00;;;4.00;99.90;;;;;;5076045;28;20172;-78
2022/01/31 04:19:48;;;;;;;0.67;0.67;;;4.00;99.90;;;;;;5075460;28;20292;-78
2022/01/31 04:22:17;;;;;;;1.90;1.30;;;4.10;99.90;;;;;;5057880;28;20199;-78
2022/01/31 04:24:42;;;;;;;0.00;0.00;;;4.10;99.90;;;;;;5076313;28;20173;-78
2022/01/31 04:27:15;;;;;;;0.10;0.10;;;4.20;99.90;;;;;;5076056;28;20659;-77
2022/01/31 04:29:43;;;;;;;0.00;0.00;;;4.20;99.90;;;;;;5076093;28;20564;-77
2022/01/31 04:32:08;;;;;;;0.00;0.00;;;4.30;99.90;;;;;;5058619;28;20172;-77
2022/01/31 04:34:34;;;;;;;0.07;0.07;;;4.30;99.90;;;;;;5058922;28;20208;-77
2022/01/31 04:37:00;;;;;;;0.97;0.60;;;4.30;99.90;;;;;;5076954;28;20249;-78
2022/01/31 04:39:27;;;;;;;1.13;0.67;;;4.40;99.90;;;;;;5076053;28;20192;-78
2022/01/31 04:41:53;;;;;;;1.27;1.07;;;4.50;99.90;;;;;;5075850;28;20173;-77
2022/01/31 04:44:20;;;;;;;0.30;0.30;;;4.50;99.90;;;;;;5075184;28;20215;-78
2022/01/31 04:46:49;;;;;;;0.17;0.17;;;4.70;99.90;;;;;;5075350;28;20235;-77
2022/01/31 04:49:15;;;;;;;0.10;0.10;;;4.80;99.90;;;;;;5075402;28;20286;-78
2022/01/31 04:51:41;;;;;;;0.37;0.37;;;4.80;99.90;;;;;;5074844;28;20267;-76
2022/01/31 04:54:06;;;;;;;0.30;0.30;;;4.90;99.90;;;;;;5056899;28;20312;-78
2022/01/31 04:56:33;;;;;;;0.30;0.30;;;5.00;99.90;;;;;;5057169;28;20187;-78
2022/01/31 04:58:58;;;;;;;0.43;0.43;;;5.00;99.90;;;;;;5074891;28;20200;-77
2022/01/31 05:01:24;;;;;;;0.33;0.33;;;5.00;99.90;;;;;;5074164;28;20283;-76
2022/01/31 05:03:50;;;;;;;0.23;0.23;;;5.00;99.90;;;;;;5074754;28;20189;-77
2022/01/31 05:06:19;;;;;;;0.80;0.57;;;5.10;99.90;;;;;;5074995;28;20543;-78
2022/01/31 05:08:45;;;;;;;0.87;0.87;;;5.10;99.90;;;;;;5074039;28;20212;-77
2022/01/31 05:11:12;;;;;;;0.00;0.00;;;5.10;99.90;;;;;;5074480;28;20184;-77
2022/01/31 05:13:38;;;;;;;1.07;1.07;;;5.10;99.90;;;;;;5073234;28;20223;-77
2022/01/31 05:16:04;;;;;;;0.20;0.20;;;5.10;99.90;;;;;;5073234;28;20647;-77
2022/01/31 05:18:30;;;;;;;0.10;0.10;;;5.10;99.90;;;;;;5056219;28;20241;-77
2022/01/31 05:20:56;;;;;;;0.93;0.93;;;5.20;99.90;;;;;;5055277;28;20176;-78
2022/01/31 05:23:21;;;;;;;0.97;0.97;;;5.20;99.90;;;;;;5073137;28;20175;-77
2022/01/31 05:25:47;;;;;;;0.53;0.50;;;5.20;99.90;;;;;;5073986;28;20180;-76
2022/01/31 05:28:12;;;;;;;0.30;0.20;;;5.20;99.90;;;;;;5073679;28;20212;-76
2022/01/31 05:30:38;;;;;;;0.40;0.40;;;5.30;99.90;;;;;;5074313;28;20229;-77
2022/01/31 05:33:04;;;;;;;2.37;2.17;;;5.30;99.90;;;;;;5074503;28;20675;-77
2022/01/31 05:35:29;;;;;;;12.73;1.07;;;5.20;99.90;;;;;;5074847;28;20184;-78
2022/01/31 05:37:55;;;;;;;0.33;0.33;;;5.30;99.90;;;;;;5074536;28;20203;-78
2022/01/31 05:40:21;;;;;;;0.00;0.00;;;5.30;99.90;;;;;;5055627;28;20687;-77
2022/01/31 05:42:47;;;;;;;1.87;1.33;;;5.20;99.90;;;;;;5074179;28;20860;-77
2022/01/31 05:45:13;;;;;;;1.30;1.10;;;5.30;99.90;;;;;;5074322;28;20177;-77
2022/01/31 05:47:38;;;;;;;0.00;0.00;;;5.30;99.90;;;;;;5056483;28;20657;-77
2022/01/31 05:50:05;;;;;;;0.37;0.37;;;5.30;99.90;;;;;;5075317;28;20191;-77
2022/01/31 05:52:31;;;;;;;0.87;0.87;;;5.30;99.90;;;;;;5056277;28;20271;-79
2022/01/31 05:54:57;;;;;;;3.50;2.53;;;5.30;99.90;;;;;;5075591;28;20216;-79
2022/01/31 05:57:22;;;;;;;0.83;0.77;;;5.40;99.90;;;;;;5076073;28;20168;-80
2022/01/31 05:59:48;;;;;;;0.00;0.00;;;5.40;99.90;;;;;;5075886;28;20697;-79
2022/01/31 06:02:14;;;;;;;0.23;0.23;;;5.40;99.90;;;;;;5075569;28;20709;-79
2022/01/31 06:04:39;;;;;;;0.40;0.40;;;5.40;99.90;;;;;;5057421;28;20242;-78
2022/01/31 06:07:05;;;;;;;0.10;0.10;;;5.40;99.90;;;;;;5076787;28;20192;-79
2022/01/31 06:09:32;;;;;;;0.03;0.03;;;5.40;99.90;;;;;;5076787;28;20196;-79
2022/01/31 06:12:01;;;;;;;0.00;0.00;;;5.40;99.90;;;;;;5077435;28;20180;-79
2022/01/31 06:14:27;;;;;;;0.20;0.20;;;5.40;99.90;;;;;;5076699;28;20188;-80
2022/01/31 06:16:53;;;;;;;1.07;0.60;;;5.50;99.90;;;;;;5077158;28;20179;-80
2022/01/31 06:19:18;;;;;;;0.53;0.53;;;5.40;99.90;;;;;;5056042;28;20284;-79
2022/01/31 06:21:44;;;;;;;0.10;0.10;;;5.40;99.90;;;;;;5076234;28;20874;-79
2022/01/31 06:24:10;;;;;;;1.50;0.20;;;5.50;99.90;;;;;;5077329;28;20184;-79
2022/01/31 06:26:39;;;;;;;0.00;0.00;;;5.50;99.90;;;;;;5075224;28;20198;-79
2022/01/31 06:29:05;;;;;;;0.17;0.17;;;5.50;99.90;;;;;;5074051;28;20204;-77
2022/01/31 06:31:31;;;;;;;0.47;0.30;;;5.50;99.90;;;;;;5070770;28;20204;-76
2022/01/31 06:33:57;;;;;;;0.60;0.60;;;5.50;99.90;;;;;;5070915;28;20200;-77
2022/01/31 06:36:23;;;;;;;0.10;0.10;;;5.50;99.90;;;;;;5071286;28;20548;-76
2022/01/31 06:38:52;;;;;;;1.30;1.20;;;5.40;99.90;;;;;;5071768;28;20192;-77
2022/01/31 06:41:19;;;;;;;0.00;0.00;;;5.40;99.90;;;;;;5053958;28;20183;-78
2022/01/31 06:43:46;;;;;;;0.40;0.40;;;5.50;99.90;;;;;;5071886;28;20180;-77
2022/01/31 06:46:12;;;;;;;0.20;0.20;;;5.40;99.90;;;;;;5071669;28;20230;-76
2022/01/31 06:48:38;;;;;;;0.10;0.10;;;5.40;99.90;;;;;;5071378;28;20296;-77
2022/01/31 06:51:03;;;;;;;0.00;0.00;;;5.30;99.90;;;;;;5071693;28;20267;-77
2022/01/31 06:53:29;;;;;;;2.03;1.93;;;5.30;99.90;;;;;;5071263;28;20201;-77
2022/01/31 06:55:56;;;;;;;0.17;0.10;;;5.20;99.90;;;;;;5071639;28;20183;-76
2022/01/31 06:58:23;;;;;;;0.10;0.10;;;5.30;99.90;;;;;;5071595;28;20544;-77
2022/01/31 07:00:48;;;;;;;5.33;1.50;;;5.30;99.90;;;;;;5071542;28;20536;-76
2022/01/31 07:03:14;;;;;;;5.33;2.33;;;5.30;99.90;;;;;;5071234;28;20274;-76
2022/01/31 07:05:44;;;;;;;0.67;0.67;;;5.30;99.90;;;;;;5071478;28;20200;-77
2022/01/31 07:08:10;;;;;;;0.77;0.63;;;5.10;99.90;;;;;;5054055;28;20702;-79
2022/01/31 07:10:37;;;;;;;0.87;0.87;;;5.10;99.90;;;;;;5073313;28;20188;-78
2022/01/31 07:13:11;;;;;;;0.00;0.00;;;5.00;99.90;;;;;;5056025;28;20295;-78
2022/01/31 07:15:37;;;;;;;0.20;0.20;;;5.00;99.90;;;;;;5057186;28;20183;-79
2022/01/31 07:18:03;;;;;;;1.23;1.13;;;4.90;99.90;;;;;;5074398;28;20201;-79
2022/01/31 07:20:37;;;;;;;2.70;1.37;;;4.80;99.90;;;;;;5075851;28;20195;-80
2022/01/31 07:23:13;;;;;;;0.77;0.30;;;4.90;99.90;;;;;;5056069;28;20555;-78
2022/01/31 07:25:39;;;;;;;0.20;0.20;;;4.80;99.90;;;;;;5072040;28;20177;-79
2022/01/31 07:28:09;;;;;;;0.30;0.30;;;4.80;99.90;;;;;;5072124;28;20556;-78
2022/01/31 07:30:39;;;;;;;0.23;0.23;;;4.80;99.90;;;;;;5073497;28;20172;-79
2022/01/31 07:33:10;;;;;;;0.77;0.53;;;4.80;99.90;;;;;;5073064;28;20207;-77
2022/01/31 07:35:36;;;;;;;0.53;0.53;;;4.70;99.90;;;;;;5073483;28;20207;-78
2022/01/31 07:38:02;;;;;;;0.10;0.10;;;4.70;99.90;;;;;;5071342;28;20201;-78
2022/01/31 07:40:28;;;;;;;0.77;0.77;;;4.60;99.90;;;;;;5070855;28;20176;-78
2022/01/31 07:42:54;;;;;;;1.00;0.67;;;4.50;99.90;;;;;;5070988;28;20601;-78
2022/01/31 07:45:20;;;;;;;0.03;0.03;;;4.40;99.90;;;;;;5074730;28;20184;-79
2022/01/31 07:47:46;;;;;;;1.40;1.30;;;4.40;99.90;;;;;;5075538;28;20655;-78
2022/01/31 07:50:13;;;;;;;0.00;0.00;;;4.40;99.90;;;;;;5057397;28;20272;-77
2022/01/31 07:52:39;;;;;;;0.00;0.00;;;4.40;99.90;;;;;;5074617;28;20202;-78
2022/01/31 07:55:05;;;;;;;0.30;0.30;;;4.40;99.90;;;;;;5074776;28;20233;-79
2022/01/31 07:57:30;;;;;;;0.50;0.50;;;4.50;99.90;;;;;;5074880;28;20184;-78
2022/01/31 07:59:56;;;;;;;1.37;1.27;;;4.50;99.90;;;;;;5075127;28;20188;-78
2022/01/31 08:02:21;;;;;;;0.50;0.50;;;4.60;99.90;;;;;;5056530;28;20628;-78
2022/01/31 08:04:47;;;;;;;0.10;0.10;;;4.60;99.90;;;;;;5074544;28;20245;-78
2022/01/31 08:07:12;;;;;;;0.00;0.00;;;4.60;99.90;;;;;;5074596;28;20179;-78
2022/01/31 08:09:39;;;;;;;0.13;0.10;;;4.60;99.90;;;;;;5074431;28;20196;-78
2022/01/31 08:12:05;;;;;;;7.23;3.33;;;4.60;99.90;;;;;;5074354;28;20195;-78
2022/01/31 08:14:31;;;;;;;0.00;0.00;;;4.70;99.90;;;;;;5074681;28;20243;-79
2022/01/31 08:16:57;;;;;;;0.50;0.50;;;4.70;99.90;;;;;;5074386;28;20592;-79
2022/01/31 08:19:22;;;;;;;0.87;0.30;;;4.80;99.90;;;;;;5074646;28;20200;-78
2022/01/31 08:21:48;;;;;;;0.30;0.30;;;4.70;99.90;;;;;;5074894;28;20183;-79
2022/01/31 08:24:13;;;;;;;0.20;0.20;;;4.80;99.90;;;;;;5074727;28;20341;-78
2022/01/31 08:26:39;;;;;;;0.27;0.20;;;4.80;99.90;;;;;;5075851;28;20192;-78
2022/01/31 08:31:48;;;;;;;0.20;0.20;;;4.80;99.90;;;;;;5074333;28;20176;-77
2022/01/31 08:36:42;;;;;;;0.30;0.30;;;4.80;99.90;;;;;;5074411;28;20208;-80
2022/01/31 08:39:11;;;;;;;1.63;1.53;;;4.80;99.90;;;;;;5073976;28;20280;-79
2022/01/31 08:41:39;;;;;;;0.10;0.10;;;4.80;99.90;;;;;;5075002;28;20575;-79
2022/01/31 08:44:05;;;;;;;0.40;0.20;;;4.80;99.90;;;;;;5074894;28;20183;-78
2022/01/31 08:46:32;;;;;;;2.60;1.93;;;4.70;99.90;;;;;;5074686;28;20180;-78
2022/01/31 08:48:59;;;;;;;1.27;1.17;;;4.70;99.90;;;;;;5073991;28;20214;-78
2022/01/31 08:51:25;;;;;;;0.60;0.20;;;4.70;99.90;;;;;;5055758;28;20192;-78
2022/01/31 08:53:51;;;;;;;0.53;0.53;;;4.70;99.90;;;;;;5073845;28;20207;-77
2022/01/31 08:56:18;;;;;;;0.40;0.40;;;4.70;99.90;;;;;;5054834;28;20233;-78
2022/01/31 08:58:47;;;;;;;0.87;0.87;;;4.70;99.90;;;;;;5073499;28;20253;-76
2022/01/31 09:01:17;;;;;;;0.00;0.00;;;4.70;99.90;;;;;;5074718;28;20180;-79
2022/01/31 09:04:00;;;;;;;0.40;0.17;;;4.60;99.90;;;;;;5073806;28;20177;-78
2022/01/31 09:06:31;;;;;;;4.27;1.43;;;4.60;99.90;;;;;;5078658;28;20176;-76
2022/01/31 09:08:58;;;;;;;0.10;0.10;;;4.60;99.90;;;;;;5075623;28;20249;-78
2022/01/31 09:11:25;;;;;;;0.00;0.00;;;4.50;99.90;;;;;;5073125;28;20286;-76
2022/01/31 09:13:51;;;;;;;0.00;0.00;;;4.50;99.90;;;;;;5073354;28;20199;-77
2022/01/31 09:16:17;;;;;;;0.30;0.30;;;4.50;99.90;;;;;;5055232;28;20223;-77
2022/01/31 09:18:42;;;;;;;1.30;0.50;;;4.40;99.90;;;;;;5072823;28;20212;-78
2022/01/31 09:21:08;;;;;;;1.23;1.23;;;4.40;99.90;;;;;;5055500;28;20187;-77
2022/01/31 09:23:34;;;;;;;0.20;0.20;;;4.40;99.90;;;;;;5073416;28;20180;-77
2022/01/31 09:26:00;;;;;;;0.00;0.00;;;4.40;99.90;;;;;;5073304;28;20184;-77
2022/01/31 09:28:26;;;;;;;1.60;1.33;;;4.30;99.90;;;;;;5073645;28;20278;-78
2022/01/31 09:30:54;;;;;;;2.90;0.83;;;4.40;99.90;;;;;;5073222;28;20604;-77
2022/01/31 09:33:20;;;;;;;0.00;0.00;;;4.40;99.90;;;;;;5054404;28;20208;-77
2022/01/31 09:35:46;;;;;;;0.20;0.20;;;4.50;99.90;;;;;;5054711;28;20184;-77
2022/01/31 09:38:14;;;;;;;0.30;0.30;;;4.50;99.90;;;;;;5072412;28;20560;-78
2022/01/31 09:40:41;;;;;;;2.17;0.97;;;4.40;99.90;;;;;;5072742;28;20176;-78
2022/01/31 09:48:33;;;;;;;0.37;0.30;;;4.30;99.90;;;;;;5093671;22;20232;-75
2022/01/31 09:51:01;;;;;;;0.10;0.10;;;4.30;99.90;;;;;;5052069;28;20193;-76
2022/01/31 09:53:28;;;;;;;25.63;1.97;;;4.30;99.90;;;;;;5051150;28;20567;-77
2022/01/31 09:55:55;;;;;;;0.00;0.00;;;4.30;99.90;;;;;;5052063;28;20188;-75
2022/01/31 09:58:20;;;;;;;0.77;0.77;;;4.30;99.90;;;;;;5051587;28;20696;-76
2022/01/31 10:00:46;;;;;;;0.37;0.20;;;4.40;99.90;;;;;;5034086;28;20275;-76
2022/01/31 10:03:12;;;;;;;2.03;1.60;;;4.30;99.90;;;;;;5033612;28;20192;-76
2022/01/31 10:05:38;;;;;;;0.10;0.10;;;4.40;99.90;;;;;;5051884;28;20188;-76
2022/01/31 10:08:15;;;;;;;0.17;0.17;;;4.40;99.90;;;;;;5033577;28;20221;-76
2022/01/31 10:10:44;;;;;;;0.80;0.27;;;4.40;99.90;;;;;;5051858;28;20184;-76
2022/01/31 10:16:30;;;;;;;0.83;0.83;;;4.50;99.90;;;;;;5051643;28;20606;-76
2022/01/31 10:19:04;;;;;;;1.87;1.13;;;4.50;99.90;;;;;;5051494;28;20207;-77
2022/01/31 10:21:30;;;;;;;1.37;1.37;;;4.40;99.90;;;;;;5051181;28;20342;-76
2022/01/31 10:23:56;;;;;;;0.20;0.10;;;4.40;99.90;;;;;;5051569;28;20263;-75
2022/01/31 10:26:32;;;;;;;3.20;1.37;;;4.40;99.90;;;;;;5052978;28;20180;-75
2022/01/31 10:29:16;;;;;;;4.80;1.60;;;4.40;99.90;;;;;;5071506;28;20191;-77
2022/01/31 10:32:04;;;;;;;1.00;0.60;;;4.40;99.90;;;;;;5064200;28;20185;-77
2022/01/31 10:34:46;;;;;;;1.53;1.43;;;4.30;99.90;;;;;;5033750;28;20229;-77
2022/01/31 10:37:17;;;;;;;0.20;0.20;;;4.40;99.90;;;;;;5060433;28;20546;-77
2022/01/31 10:53:21;;;;;;;3.47;1.07;;;4.50;99.90;;;;;;5037361;28;20241;-75
2022/01/31 10:55:55;;;;;;;0.10;0.10;;;4.50;99.90;;;;;;5059425;28;20542;-77
2022/01/31 10:58:20;;;;;;;1.60;1.50;;;4.50;99.90;;;;;;5063924;28;20204;-79
2022/01/31 11:00:46;;;;;;;0.77;0.77;;;4.60;99.90;;;;;;5038548;28;20169;-77
2022/01/31 11:03:32;;;;;;;3.10;2.20;;;4.60;99.90;;;;;;5066456;28;20773;-77
2022/01/31 11:06:04;;;;;;;2.43;1.70;;;4.60;99.90;;;;;;5053215;28;20179;-76
2022/01/31 11:08:30;;;;;;;4.90;1.67;;;4.50;99.90;;;;;;5065281;28;20205;-77
2022/01/31 11:10:58;;;;;;;0.00;0.00;;;4.50;99.90;;;;;;5057375;28;20234;-77
2022/01/31 11:13:25;;;;;;;0.90;0.90;;;4.50;99.90;;;;;;5070398;28;20210;-77
2022/01/31 11:15:53;;;;;;;4.03;1.07;;;4.50;99.90;;;;;;5058435;28;20177;-77
2022/01/31 11:18:19;;;;;;;0.20;0.20;;;4.50;99.90;;;;;;5051177;28;20275;-76
2022/01/31 11:20:48;;;;;;;3.43;0.63;;;4.50;99.90;;;;;;5036877;28;20176;-78
2022/01/31 11:23:14;;;;;;;4.70;0.63;;;4.50;99.90;;;;;;5061969;28;20191;-77
2022/01/31 11:25:43;;;;;;;0.10;0.10;;;4.50;99.90;;;;;;5075059;28;20459;-78
2022/01/31 11:28:12;;;;;;;1.60;1.50;;;4.50;99.90;;;;;;5074675;28;20181;-77
2022/01/31 11:30:40;;;;;;;0.60;0.60;;;4.60;99.90;;;;;;5074644;28;20255;-77
2022/01/31 11:33:06;;;;;;;0.00;0.00;;;4.60;99.90;;;;;;5066655;28;20224;-77
2022/01/31 11:35:32;;;;;;;1.50;0.30;;;4.60;99.90;;;;;;5054883;28;20216;-76
2022/01/31 11:37:58;;;;;;;0.63;0.40;;;4.60;99.90;;;;;;5054548;28;20187;-75
2022/01/31 11:40:24;;;;;;;3.30;1.20;;;4.60;99.90;;;;;;5036955;28;20184;-76
2022/01/31 11:42:51;;;;;;;2.00;0.93;;;4.60;99.90;;;;;;5036460;28;20196;-77
2022/01/31 11:45:40;;;;;;;1.70;1.60;;;4.60;99.90;;;;;;5037756;28;20275;-77
2022/01/31 11:48:19;;;;;;;0.20;0.20;;;4.60;99.90;;;;;;5056487;28;20279;-78
2022/01/31 11:50:47;;;;;;;0.20;0.17;;;4.60;99.90;;;;;;5037294;28;20185;-78
2022/01/31 11:53:13;;;;;;;0.30;0.27;;;4.60;99.90;;;;;;5053900;28;20299;-78
2022/01/31 11:55:39;;;;;;;0.00;0.00;;;4.60;99.90;;;;;;5074031;28;20538;-76
2022/01/31 11:58:07;;;;;;;3.50;1.90;;;4.60;99.90;;;;;;5074739;28;20181;-76
2022/01/31 12:00:37;;;;;;;6.10;1.87;;;4.60;99.90;;;;;;5074394;28;20233;-77
2022/01/31 12:03:06;;;;;;;4.03;1.30;;;4.60;99.90;;;;;;5074267;28;20165;-77
2022/01/31 12:05:36;;;;;;;0.23;0.23;;;4.70;99.90;;;;;;5074091;28;20179;-77
2022/01/31 12:08:21;;;;;;;0.53;0.53;;;4.60;99.90;;;;;;5065412;28;20173;-77
2022/01/31 12:11:06;;;;;;;2.33;0.53;;;4.60;99.90;;;;;;5038673;28;20184;-77
2022/01/31 12:13:36;;;;;;;0.83;0.83;;;4.60;99.90;;;;;;5060188;28;20608;-77
2022/01/31 12:23:59;;;;;;;0.37;0.33;;;4.50;99.90;;;;;;5056413;28;20180;-76
2022/01/31 12:26:43;;;;;;;0.00;0.00;;;4.50;99.90;;;;;;5066993;28;20241;-76
2022/01/31 12:29:20;;;;;;;4.30;1.90;;;4.50;99.90;;;;;;5068585;28;20706;-77
2022/01/31 12:32:09;;;;;;;0.07;0.07;;;4.50;99.90;;;;;;5045160;28;20945;-76
2022/01/31 12:34:40;;;;;;;1.63;0.20;;;4.50;99.90;;;;;;5052555;28;20231;-76
2022/01/31 12:37:16;;;;;;;1.07;1.07;;;4.50;99.90;;;;;;5063590;28;20182;-77
2022/01/31 12:39:46;;;;;;;2.47;2.33;;;4.50;99.90;;;;;;5053630;28;20275;-77
2022/01/31 12:42:50;;;;;;;1.27;1.27;;;4.50;99.90;;;;;;5037702;28;20759;-77
2022/01/31 12:45:32;;;;;;;0.47;0.47;;;4.50;99.90;;;;;;5059186;28;20176;-76
2022/01/31 12:48:14;;;;;;;0.00;0.00;;;4.40;99.90;;;;;;5053383;28;20226;-77
2022/01/31 12:50:51;;;;;;;4.47;0.67;;;4.40;99.90;;;;;;5053696;28;20200;-76
2022/01/31 12:53:22;;;;;;;0.40;0.40;;;4.40;99.90;;;;;;5068413;28;20203;-76
2022/01/31 12:56:24;;;;;;;0.60;0.60;;;4.40;99.90;;;;;;5047898;28;20180;-76
2022/01/31 12:59:03;;;;;;;0.20;0.20;;;4.50;99.90;;;;;;5042768;28;20293;-77
2022/01/31 13:01:35;;;;;;;0.17;0.17;;;4.50;99.90;;;;;;5072844;28;20210;-77
2022/01/31 13:04:22;;;;;;;0.10;0.10;;;4.40;99.90;;;;;;5072905;28;20226;-76
2022/01/31 13:06:53;;;;;;;0.73;0.73;;;4.50;99.90;;;;;;5054896;28;20744;-76
2022/01/31 13:09:26;;;;;;;0.20;0.20;;;4.50;99.90;;;;;;5053106;28;20208;-77
2022/01/31 13:12:06;;;;;;;0.10;0.10;;;4.50;99.90;;;;;;5052759;28;20180;-77
2022/01/31 13:14:37;;;;;;;3.80;3.10;;;4.40;99.90;;;;;;5066475;28;20215;-76
2022/01/31 13:17:15;;;;;;;0.20;0.20;;;4.50;99.90;;;;;;5043825;28;20181;-77
2022/01/31 13:19:49;;;;;;;0.00;0.00;;;4.50;99.90;;;;;;5059356;28;20202;-80
2022/01/31 13:22:26;;;;;;;4.23;1.40;;;4.60;99.90;;;;;;5072642;28;20210;-77
2022/01/31 13:24:58;;;;;;;0.47;0.47;;;4.60;99.90;;;;;;5072593;28;20182;-77
2022/01/31 13:27:33;;;;;;;6.90;1.93;;;4.60;99.90;;;;;;5072683;28;20271;-77
2022/01/31 13:29:59;;;;;;;1.30;0.57;;;4.50;99.90;;;;;;5063739;28;20192;-77
2022/01/31 13:32:28;;;;;;;3.57;2.77;;;4.60;99.90;;;;;;5052392;28;20560;-77
2022/01/31 13:34:55;;;;;;;1.70;1.10;;;4.60;99.90;;;;;;5055859;28;20185;-76
2022/01/31 13:37:36;;;;;;;0.13;0.13;;;4.60;99.90;;;;;;5065756;28;20169;-76
2022/01/31 13:40:09;;;;;;;1.50;0.97;;;4.50;99.90;;;;;;5057437;28;20207;-77